Time;durP1;ratioP1;P1;durP2;ratioP2;P2;SDS_P1;SDS_P2;PMS_P1;PMS_P2;Temp;Humidity;BMP_temperature;BMP_pressure;BME280_temperature;BME280_humidity;BME280_pressure;Samples;Min_cycle;Max_cycle;Signal;HPM_P1;HPM_P2
2022/05/28 00:01:04;;;;;;;;;;;25.20;44.50;;;;;;1632187;72;601;-72
2022/05/28 00:03:06;;;;;;;;;;;25.20;44.60;;;;;;1619794;72;1698;-72
2022/05/28 00:05:08;;;;;;;;;;;25.30;44.40;;;;;;1626950;72;730;-72
2022/05/28 00:07:10;;;;;;;;;;;25.20;44.50;;;;;;1620686;73;677;-72
2022/05/28 00:09:12;;;;;;;;;;;25.30;44.60;;;;;;1620556;72;1146;-72
2022/05/28 00:11:15;;;;;;;;;;;25.30;44.60;;;;;;1629812;72;1934;-72
2022/05/28 00:13:17;;;;;;;;;;;25.20;44.70;;;;;;1649230;71;653;-72
2022/05/28 00:15:18;;;;;;;;;;;25.20;44.70;;;;;;1651721;71;747;-72
2022/05/28 00:17:20;;;;;;;;;;;25.20;44.80;;;;;;1641246;71;1708;-72
2022/05/28 00:19:22;;;;;;;;;;;25.10;44.80;;;;;;1631628;72;1148;-69
2022/05/28 00:21:24;;;;;;;;;;;25.30;44.80;;;;;;1627762;72;756;-72
2022/05/28 00:23:26;;;;;;;;;;;25.30;44.80;;;;;;1628269;72;643;-72
2022/05/28 00:25:28;;;;;;;;;;;25.30;44.70;;;;;;1634996;72;663;-72
2022/05/28 00:27:30;;;;;;;;;;;25.20;44.70;;;;;;1649755;72;477;-73
2022/05/28 00:29:32;;;;;;;;;;;25.30;44.80;;;;;;1642354;72;1948;-72
2022/05/28 00:31:34;;;;;;;;;;;25.20;44.70;;;;;;1633610;72;1460;-71
2022/05/28 00:33:36;;;;;;;;;;;25.20;44.80;;;;;;1631999;72;551;-72
2022/05/28 00:35:38;;;;;;;;;;;25.30;44.80;;;;;;1620641;73;660;-71
2022/05/28 00:37:40;;;;;;;;;;;25.20;44.80;;;;;;1627696;72;772;-72
2022/05/28 00:39:41;;;;;;;;;;;25.30;44.80;;;;;;1649853;72;1132;-72
2022/05/28 00:41:44;;;;;;;;;;;25.20;44.80;;;;;;1630654;72;625;-73
2022/05/28 00:43:46;;;;;;;;;;;25.20;44.90;;;;;;1629958;72;1547;-72
2022/05/28 00:45:48;;;;;;;;;;;25.30;44.90;;;;;;1634989;72;643;-71
2022/05/28 00:47:51;;;;;;;;;;;25.30;44.90;;;;;;1637587;72;639;-71
2022/05/28 00:49:53;;;;;;;;;;;25.20;44.80;;;;;;1649628;72;1954;-71
2022/05/28 00:51:55;;;;;;;;;;;25.30;44.80;;;;;;1610695;72;890;-71
2022/05/28 00:53:59;;;;;;;;;;;25.30;44.90;;;;;;1603928;74;490;-71
2022/05/28 00:56:04;;;;;;;;;;;25.20;44.90;;;;;;1608512;72;754;-72
2022/05/28 00:58:06;;;;;;;;;;;25.20;44.90;;;;;;1626837;72;1389;-71
2022/05/28 01:00:09;;;;;;;;;;;25.20;45.00;;;;;;1641374;72;1299;-72
2022/05/28 01:02:16;;;;;;;;;;;25.20;45.00;;;;;;1642749;72;677;-72
2022/05/28 01:04:22;;;;;;;;;;;25.20;44.90;;;;;;1612244;72;978;-71
2022/05/28 01:06:26;;;;;;;;;;;25.30;45.00;;;;;;1624001;72;1879;-71
2022/05/28 01:08:37;;;;;;;;;;;25.30;44.90;;;;;;1637230;72;658;-70
2022/05/28 01:10:40;;;;;;;;;;;25.30;44.90;;;;;;1632994;72;1929;-71
2022/05/28 01:12:47;;;;;;;;;;;25.30;45.00;;;;;;1623579;72;1875;-71
2022/05/28 01:14:51;;;;;;;;;;;25.20;44.90;;;;;;1637319;72;705;-69
2022/05/28 01:16:57;;;;;;;;;;;25.20;44.80;;;;;;1615016;72;1868;-71
2022/05/28 01:19:04;;;;;;;;;;;25.30;44.90;;;;;;1632952;72;745;-72
2022/05/28 01:21:10;;;;;;;;;;;25.20;44.90;;;;;;1646634;72;1886;-70
2022/05/28 01:23:20;;;;;;;;;;;25.20;44.90;;;;;;1620492;73;1875;-73
2022/05/28 01:25:23;;;;;;;;;;;25.30;44.80;;;;;;1631871;72;722;-73
2022/05/28 01:27:27;;;;;;;;;;;25.30;44.90;;;;;;1636526;72;1955;-72
2022/05/28 01:29:30;;;;;;;;;;;25.30;44.80;;;;;;1635007;72;1132;-73
2022/05/28 01:31:31;;;;;;;;;;;25.30;44.90;;;;;;1624931;72;1965;-73
2022/05/28 01:33:35;;;;;;;;;;;25.30;44.80;;;;;;1615711;72;479;-73
2022/05/28 01:35:37;;;;;;;;;;;25.30;44.80;;;;;;1603732;73;941;-73
2022/05/28 01:37:39;;;;;;;;;;;25.30;44.80;;;;;;1614705;72;758;-72
2022/05/28 01:39:41;;;;;;;;;;;25.30;44.90;;;;;;1635143;72;1081;-72
2022/05/28 01:41:43;;;;;;;;;;;25.20;44.90;;;;;;1604783;73;1672;-73
2022/05/28 01:43:46;;;;;;;;;;;25.20;44.80;;;;;;1632842;72;644;-72
2022/05/28 01:45:48;;;;;;;;;;;25.30;44.70;;;;;;1627697;72;564;-72
2022/05/28 01:47:50;;;;;;;;;;;25.20;44.70;;;;;;1640766;72;799;-71
2022/05/28 01:49:52;;;;;;;;;;;25.30;44.80;;;;;;1629329;72;1144;-71
2022/05/28 01:51:54;;;;;;;;;;;25.30;44.80;;;;;;1635020;72;1936;-71
2022/05/28 01:54:11;;;;;;;;;;;25.30;44.80;;;;;;1625309;72;748;-71
2022/05/28 01:56:12;;;;;;;;;;;25.30;44.80;;;;;;1631928;72;1684;-71
2022/05/28 01:58:14;;;;;;;;;;;25.20;44.90;;;;;;1628701;72;649;-72
2022/05/28 02:00:16;;;;;;;;;;;25.20;44.90;;;;;;1626065;72;1166;-73
2022/05/28 02:02:17;;;;;;;;;;;25.30;44.90;;;;;;1623277;72;740;-72
2022/05/28 02:04:20;;;;;;;;;;;25.20;44.90;;;;;;1637385;72;691;-72
2022/05/28 02:06:22;;;;;;;;;;;25.20;44.90;;;;;;1627281;72;638;-72
2022/05/28 02:08:23;;;;;;;;;;;25.20;44.90;;;;;;1628876;72;1362;-72
2022/05/28 02:10:25;;;;;;;;;;;25.20;44.90;;;;;;1633987;72;1953;-73
2022/05/28 02:12:31;;;;;;;;;;;25.20;44.90;;;;;;1627205;72;782;-72
2022/05/28 02:14:35;;;;;;;;;;;25.20;44.80;;;;;;1642332;72;678;-71
2022/05/28 02:16:50;;;;;;;;;;;25.20;44.90;;;;;;1636070;72;1772;-72
2022/05/28 02:18:54;;;;;;;;;;;25.20;44.90;;;;;;1638854;72;805;-72
2022/05/28 02:21:00;;;;;;;;;;;25.20;44.90;;;;;;1641910;72;1782;-73
2022/05/28 02:23:06;;;;;;;;;;;25.20;44.90;;;;;;1627717;72;1549;-72
2022/05/28 02:25:12;;;;;;;;;;;25.30;45.00;;;;;;1630252;72;1647;-72
2022/05/28 02:27:15;;;;;;;;;;;25.20;45.00;;;;;;1634375;72;1491;-72
2022/05/28 02:29:16;;;;;;;;;;;25.20;45.10;;;;;;1632940;72;1124;-72
2022/05/28 02:31:20;;;;;;;;;;;25.20;45.00;;;;;;1633792;72;1930;-72
2022/05/28 02:33:22;;;;;;;;;;;25.20;45.10;;;;;;1625690;72;654;-71
2022/05/28 02:35:23;;;;;;;;;;;25.20;45.10;;;;;;1632651;72;723;-71
2022/05/28 02:37:26;;;;;;;;;;;25.20;45.10;;;;;;1627060;72;1557;-72
2022/05/28 02:39:28;;;;;;;;;;;25.20;45.10;;;;;;1631910;72;1153;-68
2022/05/28 02:41:30;;;;;;;;;;;25.20;45.00;;;;;;1629623;72;853;-70
2022/05/28 02:43:32;;;;;;;;;;;25.20;45.00;;;;;;1642676;72;695;-69
2022/05/28 02:45:33;;;;;;;;;;;25.10;45.00;;;;;;1643223;72;677;-69
2022/05/28 02:47:35;;;;;;;;;;;25.10;45.10;;;;;;1635354;72;689;-69
2022/05/28 02:49:37;;;;;;;;;;;25.20;45.10;;;;;;1631406;72;1094;-69
2022/05/28 02:51:39;;;;;;;;;;;25.10;45.00;;;;;;1633938;72;1932;-70
2022/05/28 02:53:41;;;;;;;;;;;25.10;45.00;;;;;;1632935;72;760;-67
2022/05/28 02:55:43;;;;;;;;;;;25.20;45.10;;;;;;1636539;72;696;-69
2022/05/28 02:57:45;;;;;;;;;;;25.10;45.00;;;;;;1638476;72;677;-69
2022/05/28 02:59:47;;;;;;;;;;;25.20;45.10;;;;;;1635546;72;1196;-68
2022/05/28 03:01:49;;;;;;;;;;;25.10;45.00;;;;;;1641068;72;768;-69
2022/05/28 03:03:51;;;;;;;;;;;25.10;45.00;;;;;;1633964;71;787;-71
2022/05/28 03:05:53;;;;;;;;;;;25.10;45.10;;;;;;1634914;71;1549;-70
2022/05/28 03:07:55;;;;;;;;;;;25.10;45.10;;;;;;1633350;72;719;-69
2022/05/28 03:09:57;;;;;;;;;;;25.10;45.10;;;;;;1640536;72;1111;-69
2022/05/28 03:11:59;;;;;;;;;;;25.10;45.00;;;;;;1639558;72;1934;-68
2022/05/28 03:14:01;;;;;;;;;;;25.10;45.20;;;;;;1630892;72;699;-68
2022/05/28 03:16:03;;;;;;;;;;;25.10;45.10;;;;;;1641610;71;724;-68
2022/05/28 03:18:05;;;;;;;;;;;25.10;45.20;;;;;;1632380;72;693;-68
2022/05/28 03:20:07;;;;;;;;;;;25.10;45.20;;;;;;1632019;72;1331;-68
2022/05/28 03:22:09;;;;;;;;;;;25.10;45.20;;;;;;1635686;72;728;-68
2022/05/28 03:24:11;;;;;;;;;;;25.10;45.20;;;;;;1632839;72;708;-68
2022/05/28 03:26:13;;;;;;;;;;;25.10;45.20;;;;;;1635021;72;714;-68
2022/05/28 03:28:15;;;;;;;;;;;25.10;45.20;;;;;;1634095;72;720;-68
2022/05/28 03:30:17;;;;;;;;;;;25.10;45.20;;;;;;1633482;72;1097;-68
2022/05/28 03:32:19;;;;;;;;;;;25.10;45.20;;;;;;1632924;72;1934;-68
2022/05/28 03:34:21;;;;;;;;;;;25.10;45.20;;;;;;1631470;72;1681;-68
2022/05/28 03:36:23;;;;;;;;;;;25.00;45.20;;;;;;1638220;72;727;-68
2022/05/28 03:38:25;;;;;;;;;;;25.00;45.20;;;;;;1639490;72;689;-68
2022/05/28 03:40:26;;;;;;;;;;;25.00;45.20;;;;;;1630804;72;1226;-68
2022/05/28 03:42:28;;;;;;;;;;;25.00;45.30;;;;;;1635994;72;807;-68
2022/05/28 03:44:30;;;;;;;;;;;25.00;45.20;;;;;;1637184;72;752;-68
2022/05/28 03:46:33;;;;;;;;;;;25.00;45.20;;;;;;1641269;72;1582;-68
2022/05/28 03:48:34;;;;;;;;;;;25.00;45.20;;;;;;1636803;72;782;-68
2022/05/28 03:50:36;;;;;;;;;;;25.00;45.30;;;;;;1624642;72;2701;-69
2022/05/28 03:52:38;;;;;;;;;;;25.00;45.30;;;;;;1609181;72;1945;-69
2022/05/28 03:54:43;;;;;;;;;;;25.00;45.30;;;;;;1605278;72;649;-70
2022/05/28 03:56:44;;;;;;;;;;;25.00;45.30;;;;;;1606507;72;1183;-69
2022/05/28 03:58:47;;;;;;;;;;;24.90;45.40;;;;;;1607383;72;731;-68
2022/05/28 04:00:49;;;;;;;;;;;25.00;45.30;;;;;;1643448;71;1477;-69
2022/05/28 04:02:51;;;;;;;;;;;24.90;45.30;;;;;;1649960;71;676;-69
2022/05/28 04:04:53;;;;;;;;;;;25.00;45.30;;;;;;1656301;71;797;-70
2022/05/28 04:06:54;;;;;;;;;;;24.90;45.30;;;;;;1651373;71;756;-70
2022/05/28 04:08:56;;;;;;;;;;;25.00;45.30;;;;;;1651715;71;768;-69
2022/05/28 04:10:58;;;;;;;;;;;25.00;45.30;;;;;;1648318;70;1940;-69
2022/05/28 04:13:00;;;;;;;;;;;25.00;45.30;;;;;;1647216;71;670;-69
2022/05/28 04:15:02;;;;;;;;;;;25.00;45.20;;;;;;1653164;71;1577;-70
2022/05/28 04:17:04;;;;;;;;;;;25.00;45.30;;;;;;1655847;71;676;-72
2022/05/28 04:19:06;;;;;;;;;;;25.00;45.30;;;;;;1654341;71;635;-71
2022/05/28 04:21:08;;;;;;;;;;;25.00;45.30;;;;;;1655666;71;1131;-70
2022/05/28 04:23:10;;;;;;;;;;;25.00;45.20;;;;;;1652112;71;756;-70
2022/05/28 04:25:12;;;;;;;;;;;25.00;45.30;;;;;;1648721;71;652;-69
2022/05/28 04:27:14;;;;;;;;;;;25.00;45.30;;;;;;1652953;71;657;-69
2022/05/28 04:29:15;;;;;;;;;;;24.90;45.30;;;;;;1649376;71;1472;-70
2022/05/28 04:31:17;;;;;;;;;;;24.90;45.30;;;;;;1655789;71;1944;-70
2022/05/28 04:33:19;;;;;;;;;;;24.90;45.30;;;;;;1653822;71;737;-70
2022/05/28 04:35:21;;;;;;;;;;;25.00;45.30;;;;;;1653671;71;728;-70
2022/05/28 04:37:23;;;;;;;;;;;25.00;45.40;;;;;;1647707;71;672;-68
2022/05/28 04:39:25;;;;;;;;;;;25.00;45.40;;;;;;1651306;70;1159;-75
2022/05/28 04:41:27;;;;;;;;;;;25.00;45.50;;;;;;1657810;71;713;-72
2022/05/28 04:43:28;;;;;;;;;;;25.10;45.50;;;;;;1658321;71;1460;-72
2022/05/28 04:45:30;;;;;;;;;;;25.00;45.20;;;;;;1654850;71;598;-73
2022/05/28 04:47:32;;;;;;;;;;;25.00;45.30;;;;;;1644547;71;677;-75
2022/05/28 04:49:34;;;;;;;;;;;25.00;45.30;;;;;;1648380;71;1108;-71
2022/05/28 04:51:36;;;;;;;;;;;25.00;45.30;;;;;;1631096;71;1944;-71
2022/05/28 04:53:38;;;;;;;;;;;25.00;45.30;;;;;;1652038;71;716;-73
2022/05/28 04:55:40;;;;;;;;;;;25.00;45.20;;;;;;1650380;71;729;-71
2022/05/28 04:57:42;;;;;;;;;;;24.90;45.20;;;;;;1654542;71;1481;-72
2022/05/28 04:59:43;;;;;;;;;;;24.90;45.20;;;;;;1649689;71;1192;-73
2022/05/28 05:01:45;;;;;;;;;;;24.90;45.10;;;;;;1657487;71;682;-74
2022/05/28 05:03:47;;;;;;;;;;;24.90;45.10;;;;;;1649476;71;708;-72
2022/05/28 05:05:49;;;;;;;;;;;24.90;45.00;;;;;;1654228;71;694;-72
2022/05/28 05:07:51;;;;;;;;;;;24.90;45.00;;;;;;1667120;71;704;-73
2022/05/28 05:09:53;;;;;;;;;;;24.80;44.90;;;;;;1639945;71;1129;-72
2022/05/28 05:11:55;;;;;;;;;;;24.80;44.90;;;;;;1664749;71;1935;-71
2022/05/28 05:13:57;;;;;;;;;;;24.80;45.00;;;;;;1657000;71;755;-72
2022/05/28 05:15:58;;;;;;;;;;;24.80;44.90;;;;;;1659535;71;670;-71
2022/05/28 05:18:00;;;;;;;;;;;24.80;44.90;;;;;;1646663;71;654;-73
2022/05/28 05:20:02;;;;;;;;;;;24.80;44.90;;;;;;1650009;71;1169;-70
2022/05/28 05:22:04;;;;;;;;;;;24.80;44.80;;;;;;1647864;71;682;-70
2022/05/28 05:24:06;;;;;;;;;;;24.80;44.80;;;;;;1655561;71;681;-70
2022/05/28 05:26:09;;;;;;;;;;;24.80;44.60;;;;;;1659651;71;1463;-70
2022/05/28 05:28:11;;;;;;;;;;;24.80;44.50;;;;;;1663938;71;749;-70
2022/05/28 05:30:13;;;;;;;;;;;24.70;44.30;;;;;;1649709;71;1144;-69
2022/05/28 05:32:15;;;;;;;;;;;24.60;44.20;;;;;;1660489;70;1923;-69
2022/05/28 05:34:17;;;;;;;;;;;24.70;44.20;;;;;;1660734;71;673;-70
2022/05/28 05:36:19;;;;;;;;;;;24.70;44.10;;;;;;1659153;71;678;-70
2022/05/28 05:38:21;;;;;;;;;;;24.70;44.10;;;;;;1658346;71;740;-70
2022/05/28 05:40:23;;;;;;;;;;;24.70;43.90;;;;;;1648842;70;1130;-69
2022/05/28 05:42:24;;;;;;;;;;;24.70;43.90;;;;;;1648563;71;643;-69
2022/05/28 05:44:26;;;;;;;;;;;24.70;43.80;;;;;;1663352;71;656;-70
2022/05/28 05:46:28;;;;;;;;;;;24.70;43.80;;;;;;1659523;71;718;-69
2022/05/28 05:48:30;;;;;;;;;;;24.60;43.60;;;;;;1653775;71;749;-66
2022/05/28 05:50:32;;;;;;;;;;;24.60;43.60;;;;;;1640442;71;1122;-67
2022/05/28 05:52:35;;;;;;;;;;;24.60;43.50;;;;;;1659633;71;1933;-70
2022/05/28 05:54:36;;;;;;;;;;;24.60;43.50;;;;;;1653919;71;652;-69
2022/05/28 05:56:38;;;;;;;;;;;24.60;43.50;;;;;;1654037;71;677;-69
2022/05/28 05:58:40;;;;;;;;;;;24.50;43.40;;;;;;1657220;71;626;-68
2022/05/28 06:00:42;;;;;;;;;;;24.60;43.40;;;;;;1651863;71;1245;-70
2022/05/28 06:02:44;;;;;;;;;;;24.50;43.30;;;;;;1660351;71;672;-70
2022/05/28 06:04:46;;;;;;;;;;;24.60;43.20;;;;;;1651845;71;572;-72
2022/05/28 06:06:48;;;;;;;;;;;24.50;43.30;;;;;;1658534;71;733;-71
2022/05/28 06:08:49;;;;;;;;;;;24.50;43.30;;;;;;1655497;71;680;-71
2022/05/28 06:10:51;;;;;;;;;;;24.60;43.20;;;;;;1652834;71;1132;-71
2022/05/28 06:12:53;;;;;;;;;;;24.50;43.20;;;;;;1651816;71;1933;-71
2022/05/28 06:14:55;;;;;;;;;;;24.40;43.10;;;;;;1650969;71;660;-69
2022/05/28 06:16:57;;;;;;;;;;;24.50;43.10;;;;;;1651116;71;660;-69
2022/05/28 06:18:59;;;;;;;;;;;24.60;43.10;;;;;;1648718;71;754;-72
2022/05/28 06:21:01;;;;;;;;;;;24.50;43.10;;;;;;1645512;71;1120;-71
2022/05/28 06:23:03;;;;;;;;;;;24.50;43.10;;;;;;1648582;71;695;-72
2022/05/28 06:25:05;;;;;;;;;;;24.50;43.00;;;;;;1647251;71;664;-71
2022/05/28 06:27:07;;;;;;;;;;;24.50;43.00;;;;;;1655275;71;740;-71
2022/05/28 06:29:09;;;;;;;;;;;24.50;43.00;;;;;;1647690;71;590;-71
2022/05/28 06:31:11;;;;;;;;;;;24.50;42.90;;;;;;1644779;71;1107;-71
2022/05/28 06:33:13;;;;;;;;;;;24.50;42.90;;;;;;1657937;71;1915;-70
2022/05/28 06:35:15;;;;;;;;;;;24.50;42.90;;;;;;1651205;71;675;-71
2022/05/28 06:37:17;;;;;;;;;;;24.50;42.80;;;;;;1655640;71;653;-72
2022/05/28 06:39:18;;;;;;;;;;;24.50;42.90;;;;;;1645026;71;1443;-71
2022/05/28 06:41:20;;;;;;;;;;;24.40;42.80;;;;;;1659556;71;1156;-72
2022/05/28 06:43:22;;;;;;;;;;;24.50;42.80;;;;;;1647225;71;717;-72
2022/05/28 06:45:24;;;;;;;;;;;24.40;42.70;;;;;;1647475;71;620;-72
2022/05/28 06:47:27;;;;;;;;;;;24.50;42.80;;;;;;1654135;71;707;-72
2022/05/28 06:49:28;;;;;;;;;;;24.40;42.70;;;;;;1659320;70;1143;-72
2022/05/28 06:51:31;;;;;;;;;;;24.40;42.70;;;;;;1649871;71;799;-72
2022/05/28 06:53:37;;;;;;;;;;;24.40;42.70;;;;;;1651137;71;1906;-71
2022/05/28 06:55:39;;;;;;;;;;;24.50;42.70;;;;;;1650075;71;714;-72
2022/05/28 06:57:41;;;;;;;;;;;24.50;42.80;;;;;;1650470;71;663;-71
2022/05/28 06:59:43;;;;;;;;;;;24.40;42.60;;;;;;1644864;71;1163;-72
2022/05/28 07:01:45;;;;;;;;;;;24.40;42.60;;;;;;1653344;71;704;-72
2022/05/28 07:03:47;;;;;;;;;;;24.40;42.50;;;;;;1658418;71;635;-73
2022/05/28 07:05:49;;;;;;;;;;;24.40;42.50;;;;;;1649054;71;639;-72
2022/05/28 07:07:51;;;;;;;;;;;24.40;42.50;;;;;;1654954;71;673;-72
2022/05/28 07:09:53;;;;;;;;;;;24.40;42.40;;;;;;1655177;70;1175;-72
2022/05/28 07:11:55;;;;;;;;;;;24.40;42.40;;;;;;1657825;71;748;-72
2022/05/28 07:13:57;;;;;;;;;;;24.40;42.40;;;;;;1654762;71;672;-72
2022/05/28 07:15:59;;;;;;;;;;;24.40;42.40;;;;;;1647561;71;682;-72
2022/05/28 07:18:00;;;;;;;;;;;24.40;42.40;;;;;;1655881;71;734;-72
2022/05/28 07:20:04;;;;;;;;;;;24.40;42.40;;;;;;1657187;70;1139;-73
2022/05/28 07:22:06;;;;;;;;;;;24.40;42.30;;;;;;1654363;71;781;-72
2022/05/28 07:24:08;;;;;;;;;;;24.40;42.30;;;;;;1635244;71;736;-72
2022/05/28 07:26:11;;;;;;;;;;;24.40;42.20;;;;;;1650030;71;638;-72
2022/05/28 07:28:25;;;;;;;;;;;24.50;42.20;;;;;;1646312;71;684;-73
2022/05/28 07:30:27;;;;;;;;;;;24.40;42.10;;;;;;1643730;71;1179;-72
2022/05/28 07:32:31;;;;;;;;;;;24.40;42.10;;;;;;1659116;71;1934;-73
2022/05/28 07:34:34;;;;;;;;;;;24.40;42.10;;;;;;1649507;71;684;-72
2022/05/28 07:36:35;;;;;;;;;;;24.30;42.10;;;;;;1647617;71;1548;-72
2022/05/28 07:38:37;;;;;;;;;;;24.40;42.10;;;;;;1655982;71;679;-69
2022/05/28 07:40:39;;;;;;;;;;;24.40;42.10;;;;;;1665667;71;1149;-70
2022/05/28 07:42:41;;;;;;;;;;;24.40;42.00;;;;;;1647138;71;706;-72
2022/05/28 07:44:43;;;;;;;;;;;24.40;42.00;;;;;;1657364;71;660;-70
2022/05/28 07:46:45;;;;;;;;;;;24.40;42.00;;;;;;1657356;71;708;-72
2022/05/28 07:48:47;;;;;;;;;;;24.40;41.90;;;;;;1659697;71;655;-72
2022/05/28 07:50:49;;;;;;;;;;;24.40;41.90;;;;;;1654696;71;1218;-72
2022/05/28 07:52:50;;;;;;;;;;;24.40;41.90;;;;;;1654765;71;1928;-72
2022/05/28 07:54:52;;;;;;;;;;;24.40;41.80;;;;;;1654766;71;701;-73
2022/05/28 07:56:54;;;;;;;;;;;24.40;41.80;;;;;;1646763;71;719;-72
2022/05/28 07:58:58;;;;;;;;;;;24.30;41.80;;;;;;1651089;71;662;-72
2022/05/28 08:01:00;;;;;;;;;;;24.30;41.70;;;;;;1647174;71;1173;-72
2022/05/28 08:03:01;;;;;;;;;;;24.30;41.80;;;;;;1646768;71;688;-73
2022/05/28 08:05:03;;;;;;;;;;;24.40;41.60;;;;;;1645916;71;597;-72
2022/05/28 08:07:05;;;;;;;;;;;24.30;41.70;;;;;;1648007;71;683;-73
2022/05/28 08:09:07;;;;;;;;;;;24.40;41.60;;;;;;1655369;71;689;-73
2022/05/28 08:11:10;;;;;;;;;;;24.30;41.60;;;;;;1644762;71;1157;-71
2022/05/28 08:13:12;;;;;;;;;;;24.40;41.60;;;;;;1647836;71;1927;-72
2022/05/28 08:15:14;;;;;;;;;;;24.40;41.80;;;;;;1645557;71;635;-69
2022/05/28 08:17:17;;;;;;;;;;;24.50;41.70;;;;;;1655998;71;672;-73
2022/05/28 08:19:18;;;;;;;;;;;24.50;41.60;;;;;;1656302;71;698;-72
2022/05/28 08:23:41;;;;;;;;;;;24.40;41.50;;;;;;1650711;71;1646;-70
2022/05/28 08:25:43;;;;;;;;;;;24.30;41.40;;;;;;1649853;71;659;-72
2022/05/28 08:27:45;;;;;;;;;;;24.30;41.40;;;;;;1650310;71;661;-72
2022/05/28 08:29:46;;;;;;;;;;;24.30;41.40;;;;;;1652418;71;1172;-72
2022/05/28 08:31:48;;;;;;;;;;;24.30;41.30;;;;;;1651371;71;1361;-71
2022/05/28 08:33:50;;;;;;;;;;;24.40;41.30;;;;;;1650682;71;1939;-70
2022/05/28 08:35:53;;;;;;;;;;;24.30;41.30;;;;;;1651650;71;662;-69
2022/05/28 08:37:55;;;;;;;;;;;24.30;41.30;;;;;;1642830;71;681;-70
2022/05/28 08:39:57;;;;;;;;;;;24.40;41.30;;;;;;1657443;71;1127;-71
2022/05/28 08:41:59;;;;;;;;;;;24.40;41.30;;;;;;1648096;71;689;-68
2022/05/28 08:44:05;;;;;;;;;;;24.40;41.30;;;;;;1651503;71;645;-70
2022/05/28 08:46:08;;;;;;;;;;;24.40;41.20;;;;;;1649660;71;1058;-70
2022/05/28 08:48:10;;;;;;;;;;;24.40;41.10;;;;;;1642235;71;766;-69
2022/05/28 08:50:12;;;;;;;;;;;24.40;41.00;;;;;;1649342;71;1160;-70
2022/05/28 08:52:18;;;;;;;;;;;24.30;41.10;;;;;;1643931;71;683;-71
2022/05/28 08:54:22;;;;;;;;;;;24.30;41.00;;;;;;1647087;71;1936;-70
2022/05/28 08:56:24;;;;;;;;;;;24.30;40.90;;;;;;1639479;71;1661;-70
2022/05/28 08:58:27;;;;;;;;;;;24.30;40.80;;;;;;1649280;71;735;-71
2022/05/28 09:00:37;;;;;;;;;;;24.30;40.80;;;;;;1654604;70;1183;-70
2022/05/28 09:02:39;;;;;;;;;;;24.30;40.70;;;;;;1656162;71;1093;-70
2022/05/28 09:04:41;;;;;;;;;;;24.30;40.70;;;;;;1656992;71;694;-71
2022/05/28 09:06:46;;;;;;;;;;;24.30;40.60;;;;;;1652511;71;698;-69
2022/05/28 09:08:54;;;;;;;;;;;24.30;40.60;;;;;;1641677;71;1089;-70
2022/05/28 09:10:57;;;;;;;;;;;24.30;40.50;;;;;;1658483;71;1181;-70
2022/05/28 09:13:03;;;;;;;;;;;24.30;40.50;;;;;;1659698;71;1924;-70
2022/05/28 09:15:05;;;;;;;;;;;24.30;40.30;;;;;;1645836;71;759;-70
2022/05/28 09:17:08;;;;;;;;;;;24.30;40.30;;;;;;1644654;71;695;-69
2022/05/28 09:19:12;;;;;;;;;;;24.30;40.20;;;;;;1650546;71;672;-70
2022/05/28 09:21:15;;;;;;;;;;;24.30;40.30;;;;;;1656857;71;1113;-70
2022/05/28 09:23:17;;;;;;;;;;;24.30;40.20;;;;;;1662969;71;699;-68
2022/05/28 09:25:20;;;;;;;;;;;24.30;40.20;;;;;;1656903;71;713;-69
2022/05/28 09:27:32;;;;;;;;;;;24.30;40.10;;;;;;1639713;71;620;-69
2022/05/28 09:29:41;;;;;;;;;;;24.40;40.10;;;;;;1652573;70;1497;-70
2022/05/28 09:31:48;;;;;;;;;;;24.30;40.00;;;;;;1649191;71;737;-70
2022/05/28 09:34:06;;;;;;;;;;;24.30;39.90;;;;;;1631412;71;1943;-70
2022/05/28 09:36:13;;;;;;;;;;;24.30;39.90;;;;;;1647896;71;673;-71
2022/05/28 09:38:21;;;;;;;;;;;24.20;39.70;;;;;;1647869;71;1064;-70
2022/05/28 09:40:31;;;;;;;;;;;24.30;39.80;;;;;;1638683;71;1133;-68
2022/05/28 09:42:46;;;;;;;;;;;24.30;39.70;;;;;;1641752;71;2027;-70
2022/05/28 09:44:50;;;;;;;;;;;24.20;39.60;;;;;;1643977;71;674;-70
2022/05/28 09:46:52;;;;;;;;;;;24.30;39.70;;;;;;1644589;71;1032;-71
2022/05/28 09:49:04;;;;;;;;;;;24.20;39.50;;;;;;1661765;71;682;-70
2022/05/28 09:51:08;;;;;;;;;;;24.30;39.50;;;;;;1643345;71;2114;-66
2022/05/28 09:55:31;;;;;;;;;;;24.20;39.30;;;;;;1610870;72;1636;-66
2022/05/28 09:57:34;;;;;;;;;;;24.20;39.30;;;;;;1621119;72;765;-66
2022/05/28 09:59:37;;;;;;;;;;;24.30;39.40;;;;;;1617203;72;1110;-65
2022/05/28 10:01:39;;;;;;;;;;;24.20;39.30;;;;;;1609138;72;1248;-63
2022/05/28 10:06:03;;;;;;;;;;;24.20;39.20;;;;;;1615483;72;1699;-65
2022/05/28 10:08:09;;;;;;;;;;;24.20;39.20;;;;;;1617640;72;800;-65
2022/05/28 10:10:22;;;;;;;;;;;24.20;39.10;;;;;;1619443;72;1164;-65
2022/05/28 10:12:24;;;;;;;;;;;24.20;39.20;;;;;;1629872;72;796;-66
2022/05/28 10:14:28;;;;;;;;;;;24.20;39.20;;;;;;1629536;72;1939;-63
2022/05/28 10:16:31;;;;;;;;;;;24.20;39.10;;;;;;1615578;72;637;-65
2022/05/28 10:18:34;;;;;;;;;;;24.20;39.20;;;;;;1612636;72;1797;-65
2022/05/28 10:20:36;;;;;;;;;;;24.30;39.20;;;;;;1617094;72;1096;-63
2022/05/28 10:22:38;;;;;;;;;;;24.20;39.10;;;;;;1605267;72;694;-66
2022/05/28 10:24:41;;;;;;;;;;;24.30;39.20;;;;;;1606581;72;1562;-62
2022/05/28 10:26:48;;;;;;;;;;;24.20;39.10;;;;;;1610717;72;842;-64
2022/05/28 10:28:51;;;;;;;;;;;24.30;39.20;;;;;;1611597;72;1150;-65
2022/05/28 10:30:53;;;;;;;;;;;24.30;39.20;;;;;;1619147;72;1131;-65
2022/05/28 10:32:55;;;;;;;;;;;24.30;39.10;;;;;;1614575;72;708;-64
2022/05/28 10:35:01;;;;;;;;;;;24.20;39.00;;;;;;1620891;72;1947;-64
2022/05/28 10:37:07;;;;;;;;;;;24.30;39.20;;;;;;1610682;72;1321;-65
2022/05/28 10:39:10;;;;;;;;;;;24.30;39.20;;;;;;1611587;72;1781;-66
2022/05/28 10:41:16;;;;;;;;;;;24.30;39.10;;;;;;1608840;72;1117;-64
2022/05/28 10:43:19;;;;;;;;;;;24.20;39.00;;;;;;1617325;72;699;-66
2022/05/28 10:45:21;;;;;;;;;;;24.20;39.00;;;;;;1609962;72;1547;-65
2022/05/28 10:47:28;;;;;;;;;;;24.20;39.10;;;;;;1619012;72;670;-65
2022/05/28 10:49:41;;;;;;;;;;;24.20;39.10;;;;;;1615035;72;673;-63
2022/05/28 10:51:59;;;;;;;;;;;24.30;39.20;;;;;;1607857;72;2128;-65
2022/05/28 10:54:05;;;;;;;;;;;24.30;39.20;;;;;;1627269;72;1917;-65
2022/05/28 10:56:18;;;;;;;;;;;24.30;39.20;;;;;;1609000;72;666;-65
2022/05/28 10:58:39;;;;;;;;;;;24.20;39.10;;;;;;1616635;72;732;-64
2022/05/28 11:00:49;;;;;;;;;;;24.30;39.30;;;;;;1607684;72;1989;-64
2022/05/28 11:02:55;;;;;;;;;;;24.30;39.30;;;;;;1618747;72;1982;-65
2022/05/28 11:05:01;;;;;;;;;;;24.20;39.20;;;;;;1608933;72;1864;-63
2022/05/28 11:07:23;;;;;;;;;;;24.20;39.20;;;;;;1623599;72;801;-64
2022/05/28 11:09:27;;;;;;;;;;;24.20;39.20;;;;;;1602657;72;757;-65
2022/05/28 11:11:45;;;;;;;;;;;24.30;39.30;;;;;;1625768;71;1151;-63
2022/05/28 11:13:49;;;;;;;;;;;24.20;39.20;;;;;;1607302;72;1936;-65
2022/05/28 11:16:05;;;;;;;;;;;24.20;39.20;;;;;;1613630;72;1901;-65
2022/05/28 11:18:24;;;;;;;;;;;24.30;39.20;;;;;;1608854;72;732;-65
2022/05/28 11:20:44;;;;;;;;;;;24.20;39.20;;;;;;1620245;72;1574;-65
2022/05/28 11:22:50;;;;;;;;;;;24.20;39.20;;;;;;1621002;72;702;-65
2022/05/28 11:25:01;;;;;;;;;;;24.20;39.20;;;;;;1623371;72;766;-64
2022/05/28 11:27:08;;;;;;;;;;;24.20;39.20;;;;;;1615053;72;1423;-65
2022/05/28 11:29:27;;;;;;;;;;;24.20;39.20;;;;;;1603990;72;1936;-65
2022/05/28 11:31:31;;;;;;;;;;;24.20;39.30;;;;;;1612710;72;1097;-65
2022/05/28 11:33:37;;;;;;;;;;;24.20;39.30;;;;;;1605192;72;1922;-64
2022/05/28 11:35:43;;;;;;;;;;;24.20;39.30;;;;;;1621174;72;735;-65
2022/05/28 11:37:47;;;;;;;;;;;24.20;39.20;;;;;;1616005;72;675;-65
2022/05/28 11:39:50;;;;;;;;;;;24.20;39.30;;;;;;1621548;71;1140;-65
2022/05/28 11:41:53;;;;;;;;;;;24.20;39.20;;;;;;1608530;72;712;-66
2022/05/28 11:43:57;;;;;;;;;;;24.20;39.20;;;;;;1613329;72;818;-65
2022/05/28 11:46:01;;;;;;;;;;;24.20;39.20;;;;;;1612027;72;700;-65
2022/05/28 11:48:07;;;;;;;;;;;24.20;39.20;;;;;;1623242;72;795;-64
2022/05/28 11:52:47;;;;;;;;;;;24.20;39.20;;;;;;1607037;72;835;-65
2022/05/28 11:54:57;;;;;;;;;;;24.20;39.20;;;;;;1615701;72;1939;-65
2022/05/28 11:56:59;;;;;;;;;;;24.20;39.20;;;;;;1612953;72;671;-65
2022/05/28 11:59:03;;;;;;;;;;;24.20;39.30;;;;;;1614634;72;718;-65
2022/05/28 12:01:06;;;;;;;;;;;24.20;39.20;;;;;;1606526;72;1144;-66
2022/05/28 12:03:24;;;;;;;;;;;24.20;39.30;;;;;;1610896;72;1852;-65
2022/05/28 12:05:30;;;;;;;;;;;24.20;39.30;;;;;;1606580;72;736;-65
2022/05/28 12:07:35;;;;;;;;;;;24.20;39.30;;;;;;1614675;72;1913;-65
2022/05/28 12:09:39;;;;;;;;;;;24.20;39.30;;;;;;1614482;72;778;-63
2022/05/28 12:11:53;;;;;;;;;;;24.20;39.30;;;;;;1605661;72;2587;-65
2022/05/28 12:13:55;;;;;;;;;;;24.20;39.20;;;;;;1623683;72;1911;-65
2022/05/28 12:16:08;;;;;;;;;;;24.20;39.30;;;;;;1603396;72;780;-65
2022/05/28 12:18:21;;;;;;;;;;;24.20;39.30;;;;;;1607312;72;1624;-65
2022/05/28 12:20:33;;;;;;;;;;;24.20;39.40;;;;;;1610438;71;1175;-65
2022/05/28 12:22:41;;;;;;;;;;;24.20;39.30;;;;;;1622103;72;713;-64
2022/05/28 12:24:45;;;;;;;;;;;24.20;39.30;;;;;;1603457;72;1704;-66
2022/05/28 12:26:58;;;;;;;;;;;24.20;39.30;;;;;;1612694;72;1680;-63